Shirahamamaru — JG4872 — position and weather

sailwx.info

Track history (hours):
 
Tides and Currents Weather Stations Pressure Air Temp Water Temp Dewpoint Dewpoint Depression Visibility Wind Speed Wind Dir Waves Ship Positions

Shirahamamaru

Last reported at 2014-Aug-21 23:33 UTC. Time now 2014-Aug-21 23:58 UTC.
Position N 35°13' E 139°47'.

Length 79 m; draft 3.2 m.

Type: Passenger vessel. MMSI: 431000239.

Date/timePositionNaut miles runAvg speedWind from/ knotsBaromVisibWave heightAir tempDewpointWater temp
2014-Aug-21 23:33N 35°13' E 139°47'1 1.4
2014-Aug-21 22:33N 35°13' E 139°45'2 2.2
2014-Aug-21 21:34N 35°11' E 139°47'1 0.1
2014-Aug-21 10:34N 35°12' E 139°46'2 2.4
2014-Aug-21 09:33N 35°11' E 139°48'4 4.3
2014-Aug-21 08:33N 35°13' E 139°44'5 5.2
2014-Aug-21 07:33N 35°10' E 139°49'5 5.1
2014-Aug-21 06:33N 35°13' E 139°44'3 3.4
2014-Aug-21 05:33N 35°12' E 139°47'2 2.2
2014-Aug-21 04:33N 35°13' E 139°45'3 3.2
2014-Aug-21 03:33N 35°11' E 139°48'4 4.5
2014-Aug-21 02:33N 35°13' E 139°43'5 4.6
2014-Aug-21 01:33N 35°11' E 139°48'4 4.5
2014-Aug-21 00:33N 35°13' E 139°44'2 2.3
2014-Aug-20 23:33N 35°12' E 139°46'1 1.3
2014-Aug-20 22:33N 35°13' E 139°45'2 2.3
2014-Aug-20 21:33N 35°11' E 139°47'2 0.1
2014-Aug-20 10:33N 35°13' E 139°46'2 2.4
2014-Aug-20 09:33N 35°11' E 139°48'4 4.1
2014-Aug-20 08:33N 35°13' E 139°44'5 5.1
2014-Aug-20 07:33N 35°10' E 139°49'5 5.2
2014-Aug-20 06:33N 35°13' E 139°44'3 3.2
2014-Aug-20 05:33N 35°11' E 139°47'2 2.2
2014-Aug-20 04:33N 35°13' E 139°45'3 3.1
2014-Aug-20 03:33N 35°11' E 139°48'4 4.3
2014-Aug-20 02:33N 35°13' E 139°43'4 4.3
2014-Aug-20 01:33N 35°11' E 139°48'4 4.1
2014-Aug-20 00:33N 35°13' E 139°44'2 2.3
2014-Aug-19 23:33N 35°12' E 139°46'1 1.5
2014-Aug-19 22:33N 35°13' E 139°45'2 2.4
2014-Aug-19 21:33N 35°11' E 139°47'1 0.1
2014-Aug-19 10:33N 35°12' E 139°46'2 2.2
2014-Aug-19 09:33N 35°11' E 139°48'4 4.2
2014-Aug-19 08:33N 35°13' E 139°44'5 5.2
2014-Aug-19 07:33N 35°10' E 139°49'5 5.2
2014-Aug-19 06:33N 35°13' E 139°44'3 3.2
2014-Aug-19 05:33N 35°11' E 139°47'2 2.1
2014-Aug-19 04:33N 35°13' E 139°45'3 3.3
2014-Aug-19 03:33N 35°11' E 139°48'4 4.5
2014-Aug-19 02:33N 35°13' E 139°44'4 4.1
2014-Aug-19 01:33N 35°11' E 139°48'4 3.9
2014-Aug-19 00:33N 35°13' E 139°44'2 2.2
2014-Aug-18 23:33N 35°12' E 139°46'1 1.3
2014-Aug-18 22:33N 35°13' E 139°45'2 2.3
2014-Aug-18 21:33N 35°11' E 139°47'1 0.1
2014-Aug-18 10:33N 35°12' E 139°46'2 2.4
2014-Aug-18 09:33N 35°11' E 139°48'4 4.2
2014-Aug-18 08:33N 35°13' E 139°44'5 5.1
2014-Aug-18 07:33N 35°10' E 139°49'5 5.0
2014-Aug-18 06:33N 35°13' E 139°44'3 2.9
2014-Aug-18 05:34N 35°11' E 139°47'2 1.9
2014-Aug-18 04:33N 35°13' E 139°45'3 2.9
2014-Aug-18 03:33N 35°11' E 139°48'4 4.2
2014-Aug-18 02:33N 35°13' E 139°44'4 4.2
2014-Aug-18 01:33N 35°11' E 139°48'4 4.2
2014-Aug-18 00:33N 35°13' E 139°44'2 0.1
2014-Aug-17 10:33N 35°12' E 139°46'2 2.4
2014-Aug-17 09:33N 35°11' E 139°48'4 4.5
2014-Aug-17 08:33N 35°13' E 139°44'5 5.1
2014-Aug-17 07:33N 35°10' E 139°49'5 4.8
2014-Aug-17 06:33N 35°13' E 139°44'3 2.9
2014-Aug-17 05:33N 35°12' E 139°47'2 2.0
2014-Aug-17 04:33N 35°13' E 139°45'3 3.4
2014-Aug-17 03:33N 35°11' E 139°48'5 4.6
2014-Aug-17 02:33N 35°13' E 139°44'4 4.3
2014-Aug-17 01:33N 35°11' E 139°48'4 4.3
2014-Aug-17 00:33N 35°13' E 139°44'2 2.2
2014-Aug-16 23:33N 35°12' E 139°46'1 1.2
2014-Aug-16 22:33N 35°13' E 139°45'2 2.3
2014-Aug-16 21:33N 35°11' E 139°47'1 0.1
2014-Aug-16 10:33N 35°12' E 139°46'3 2.7
2014-Aug-16 09:33N 35°11' E 139°48'5 4.7
2014-Aug-16 08:33N 35°13' E 139°43'5 5.2
2014-Aug-16 07:33N 35°10' E 139°49'5 5.1
2014-Aug-16 06:33N 35°13' E 139°44'4 4.2
2014-Aug-16 05:33N 35°11' E 139°48'3 3.3
2014-Aug-16 04:33N 35°13' E 139°44'4 3.8
2014-Aug-16 03:33N 35°11' E 139°48'5 4.7
2014-Aug-16 02:33N 35°13' E 139°43'5 4.8
2014-Aug-16 01:33N 35°11' E 139°48'5 4.8
2014-Aug-16 00:33N 35°13' E 139°43'2 2.4
2014-Aug-15 23:33N 35°12' E 139°46'1 1.2
2014-Aug-15 22:33N 35°13' E 139°45'2 2.0
2014-Aug-15 21:33N 35°12' E 139°47'2 0.2
2014-Aug-15 12:03N 35°10' E 139°49'4 7.4
2014-Aug-15 11:33N 35°12' E 139°45'3 3.5
2014-Aug-15 10:33N 35°10' E 139°49'3 3.1
2014-Aug-15 09:33N 35°13' E 139°46'1 1.4
2014-Aug-15 08:34N 35°11' E 139°47'2 2.5
2014-Aug-15 07:33N 35°13' E 139°45'2 2.3
2014-Aug-15 06:33N 35°12' E 139°47'2 2.3
2014-Aug-15 05:33N 35°13' E 139°45'1 1.2
2014-Aug-15 04:33N 35°12' E 139°46'0 0.4
2014-Aug-15 03:33N 35°12' E 139°45'2 1.6
2014-Aug-15 02:33N 35°11' E 139°47'2 2.4
2014-Aug-15 01:33N 35°13' E 139°45'2 2.2
2014-Aug-15 00:33N 35°11' E 139°47'2 2.2
2014-Aug-14 23:33N 35°13' E 139°45'1 1.3
2014-Aug-14 22:33N 35°12' E 139°46'1 1.4
2014-Aug-14 21:33N 35°13' E 139°45'1 0.1
2014-Aug-14 11:33N 35°13' E 139°43'2 2.5
2014-Aug-14 10:33N 35°13' E 139°46'2 2.3
2014-Aug-14 09:33N 35°11' E 139°48'4 4.1
2014-Aug-14 08:33N 35°13' E 139°44'5 5.0
2014-Aug-14 07:33N 35°10' E 139°49'5 4.9
2014-Aug-14 06:33N 35°13' E 139°44'3 3.2
2014-Aug-14 05:33N 35°11' E 139°47'2 2.3
2014-Aug-14 04:33N 35°13' E 139°45'3 3.2
2014-Aug-14 03:33N 35°11' E 139°48'4 4.3
2014-Aug-14 02:34N 35°13' E 139°44'4 4.3
2014-Aug-14 01:33N 35°11' E 139°48'4 4.1
2014-Aug-14 00:33N 35°13' E 139°44'2 2.2
2014-Aug-13 23:33N 35°12' E 139°46'1 1.5
2014-Aug-13 22:33N 35°13' E 139°45'2 2.3
2014-Aug-13 21:33N 35°12' E 139°47'1 0.1
2014-Aug-13 10:33N 35°12' E 139°46'2 2.1
2014-Aug-13 09:33N 35°11' E 139°48'4 4.3
2014-Aug-13 08:33N 35°13' E 139°44'5 5.2
2014-Aug-13 07:33N 35°10' E 139°49'5 5.0
2014-Aug-13 06:33N 35°13' E 139°44'3 3.1
2014-Aug-13 05:33N 35°12' E 139°47'2 2.3
2014-Aug-13 04:33N 35°13' E 139°45'3 3.2
2014-Aug-13 03:33N 35°11' E 139°48'4 4.1
2014-Aug-13 02:33N 35°13' E 139°44'4 4.3
2014-Aug-13 01:33N 35°11' E 139°48'5 4.6
2014-Aug-13 00:33N 35°13' E 139°43'3 2.7
2014-Aug-12 23:33N 35°12' E 139°46'2 1.7
2014-Aug-12 22:33N 35°13' E 139°44'3 2.7
2014-Aug-12 21:34N 35°11' E 139°47'1 0.1
2014-Aug-12 10:33N 35°12' E 139°46'2 2.1
2014-Aug-12 09:33N 35°11' E 139°48'4 4.4
2014-Aug-12 08:33N 35°13' E 139°43'5 5.4
2014-Aug-12 07:33N 35°10' E 139°49'5 5.3
2014-Aug-12 06:33N 35°13' E 139°44'3 3.3
2014-Aug-12 05:33N 35°11' E 139°47'2 2.5
2014-Aug-12 04:33N 35°13' E 139°44'3 3.5
2014-Aug-12 03:33N 35°11' E 139°48'5 4.6
2014-Aug-12 02:33N 35°13' E 139°43'5 4.6
2014-Aug-12 01:33N 35°11' E 139°48'4 4.3
2014-Aug-12 00:33N 35°13' E 139°44'  
Track history (hours):
 
Tides and Currents Weather Stations Pressure Air Temp Water Temp Dewpoint Dewpoint Depression Visibility Wind Speed Wind Dir Waves Ship Positions

Shirahamamaru

Last reported at 2014-Aug-21 23:33 UTC. Time now 2014-Aug-21 23:58 UTC.
Position N 35°13' E 139°47'.

Length 79 m; draft 3.2 m.

Type: Passenger vessel. MMSI: 431000239.

Date/timePositionNaut miles runAvg speedWind from/ knotsBaromVisibWave heightAir tempDewpointWater temp
2014-Aug-21 23:33N 35°13' E 139°47'1 1.4
2014-Aug-21 22:33N 35°13' E 139°45'2 2.2
2014-Aug-21 21:34N 35°11' E 139°47'1 0.1
2014-Aug-21 10:34N 35°12' E 139°46'2 2.4
2014-Aug-21 09:33N 35°11' E 139°48'4 4.3
2014-Aug-21 08:33N 35°13' E 139°44'5 5.2
2014-Aug-21 07:33N 35°10' E 139°49'5 5.1
2014-Aug-21 06:33N 35°13' E 139°44'3 3.4
2014-Aug-21 05:33N 35°12' E 139°47'2 2.2
2014-Aug-21 04:33N 35°13' E 139°45'3 3.2
2014-Aug-21 03:33N 35°11' E 139°48'4 4.5
2014-Aug-21 02:33N 35°13' E 139°43'5 4.6
2014-Aug-21 01:33N 35°11' E 139°48'4 4.5
2014-Aug-21 00:33N 35°13' E 139°44'2 2.3
2014-Aug-20 23:33N 35°12' E 139°46'1 1.3
2014-Aug-20 22:33N 35°13' E 139°45'2 2.3
2014-Aug-20 21:33N 35°11' E 139°47'2 0.1
2014-Aug-20 10:33N 35°13' E 139°46'2 2.4
2014-Aug-20 09:33N 35°11' E 139°48'4 4.1
2014-Aug-20 08:33N 35°13' E 139°44'5 5.1
2014-Aug-20 07:33N 35°10' E 139°49'5 5.2
2014-Aug-20 06:33N 35°13' E 139°44'3 3.2
2014-Aug-20 05:33N 35°11' E 139°47'2 2.2
2014-Aug-20 04:33N 35°13' E 139°45'3 3.1
2014-Aug-20 03:33N 35°11' E 139°48'4 4.3
2014-Aug-20 02:33N 35°13' E 139°43'4 4.3
2014-Aug-20 01:33N 35°11' E 139°48'4 4.1
2014-Aug-20 00:33N 35°13' E 139°44'2 2.3
2014-Aug-19 23:33N 35°12' E 139°46'1 1.5
2014-Aug-19 22:33N 35°13' E 139°45'2 2.4
2014-Aug-19 21:33N 35°11' E 139°47'1 0.1
2014-Aug-19 10:33N 35°12' E 139°46'2 2.2
2014-Aug-19 09:33N 35°11' E 139°48'4 4.2
2014-Aug-19 08:33N 35°13' E 139°44'5 5.2
2014-Aug-19 07:33N 35°10' E 139°49'5 5.2
2014-Aug-19 06:33N 35°13' E 139°44'3 3.2
2014-Aug-19 05:33N 35°11' E 139°47'2 2.1
2014-Aug-19 04:33N 35°13' E 139°45'3 3.3
2014-Aug-19 03:33N 35°11' E 139°48'4 4.5
2014-Aug-19 02:33N 35°13' E 139°44'4 4.1
2014-Aug-19 01:33N 35°11' E 139°48'4 3.9
2014-Aug-19 00:33N 35°13' E 139°44'2 2.2
2014-Aug-18 23:33N 35°12' E 139°46'1 1.3
2014-Aug-18 22:33N 35°13' E 139°45'2 2.3
2014-Aug-18 21:33N 35°11' E 139°47'1 0.1
2014-Aug-18 10:33N 35°12' E 139°46'2 2.4
2014-Aug-18 09:33N 35°11' E 139°48'4 4.2
2014-Aug-18 08:33N 35°13' E 139°44'5 5.1
2014-Aug-18 07:33N 35°10' E 139°49'5 5.0
2014-Aug-18 06:33N 35°13' E 139°44'3 2.9
2014-Aug-18 05:34N 35°11' E 139°47'2 1.9
2014-Aug-18 04:33N 35°13' E 139°45'3 2.9
2014-Aug-18 03:33N 35°11' E 139°48'4 4.2
2014-Aug-18 02:33N 35°13' E 139°44'4 4.2
2014-Aug-18 01:33N 35°11' E 139°48'4 4.2
2014-Aug-18 00:33N 35°13' E 139°44'2 0.1
2014-Aug-17 10:33N 35°12' E 139°46'2 2.4
2014-Aug-17 09:33N 35°11' E 139°48'4 4.5
2014-Aug-17 08:33N 35°13' E 139°44'5 5.1
2014-Aug-17 07:33N 35°10' E 139°49'5 4.8
2014-Aug-17 06:33N 35°13' E 139°44'3 2.9
2014-Aug-17 05:33N 35°12' E 139°47'2 2.0
2014-Aug-17 04:33N 35°13' E 139°45'3 3.4
2014-Aug-17 03:33N 35°11' E 139°48'5 4.6
2014-Aug-17 02:33N 35°13' E 139°44'4 4.3
2014-Aug-17 01:33N 35°11' E 139°48'4 4.3
2014-Aug-17 00:33N 35°13' E 139°44'2 2.2
2014-Aug-16 23:33N 35°12' E 139°46'1 1.2
2014-Aug-16 22:33N 35°13' E 139°45'2 2.3
2014-Aug-16 21:33N 35°11' E 139°47'1 0.1
2014-Aug-16 10:33N 35°12' E 139°46'3 2.7
2014-Aug-16 09:33N 35°11' E 139°48'5 4.7
2014-Aug-16 08:33N 35°13' E 139°43'5 5.2
2014-Aug-16 07:33N 35°10' E 139°49'5 5.1
2014-Aug-16 06:33N 35°13' E 139°44'4 4.2
2014-Aug-16 05:33N 35°11' E 139°48'3 3.3
2014-Aug-16 04:33N 35°13' E 139°44'4 3.8
2014-Aug-16 03:33N 35°11' E 139°48'5 4.7
2014-Aug-16 02:33N 35°13' E 139°43'5 4.8
2014-Aug-16 01:33N 35°11' E 139°48'5 4.8
2014-Aug-16 00:33N 35°13' E 139°43'2 2.4
2014-Aug-15 23:33N 35°12' E 139°46'1 1.2
2014-Aug-15 22:33N 35°13' E 139°45'2 2.0
2014-Aug-15 21:33N 35°12' E 139°47'2 0.2
2014-Aug-15 12:03N 35°10' E 139°49'4 7.4
2014-Aug-15 11:33N 35°12' E 139°45'3 3.5
2014-Aug-15 10:33N 35°10' E 139°49'3 3.1
2014-Aug-15 09:33N 35°13' E 139°46'1 1.4
2014-Aug-15 08:34N 35°11' E 139°47'2 2.5
2014-Aug-15 07:33N 35°13' E 139°45'2 2.3
2014-Aug-15 06:33N 35°12' E 139°47'2 2.3
2014-Aug-15 05:33N 35°13' E 139°45'1 1.2
2014-Aug-15 04:33N 35°12' E 139°46'0 0.4
2014-Aug-15 03:33N 35°12' E 139°45'2 1.6
2014-Aug-15 02:33N 35°11' E 139°47'2 2.4
2014-Aug-15 01:33N 35°13' E 139°45'2 2.2
2014-Aug-15 00:33N 35°11' E 139°47'2 2.2
2014-Aug-14 23:33N 35°13' E 139°45'1 1.3
2014-Aug-14 22:33N 35°12' E 139°46'1 1.4
2014-Aug-14 21:33N 35°13' E 139°45'1 0.1
2014-Aug-14 11:33N 35°13' E 139°43'2 2.5
2014-Aug-14 10:33N 35°13' E 139°46'2 2.3
2014-Aug-14 09:33N 35°11' E 139°48'4 4.1
2014-Aug-14 08:33N 35°13' E 139°44'5 5.0
2014-Aug-14 07:33N 35°10' E 139°49'5 4.9
2014-Aug-14 06:33N 35°13' E 139°44'3 3.2
2014-Aug-14 05:33N 35°11' E 139°47'2 2.3
2014-Aug-14 04:33N 35°13' E 139°45'3 3.2
2014-Aug-14 03:33N 35°11' E 139°48'4 4.3
2014-Aug-14 02:34N 35°13' E 139°44'4 4.3
2014-Aug-14 01:33N 35°11' E 139°48'4 4.1
2014-Aug-14 00:33N 35°13' E 139°44'2 2.2
2014-Aug-13 23:33N 35°12' E 139°46'1 1.5
2014-Aug-13 22:33N 35°13' E 139°45'2 2.3
2014-Aug-13 21:33N 35°12' E 139°47'1 0.1
2014-Aug-13 10:33N 35°12' E 139°46'2 2.1
2014-Aug-13 09:33N 35°11' E 139°48'4 4.3
2014-Aug-13 08:33N 35°13' E 139°44'5 5.2
2014-Aug-13 07:33N 35°10' E 139°49'5 5.0
2014-Aug-13 06:33N 35°13' E 139°44'3 3.1
2014-Aug-13 05:33N 35°12' E 139°47'2 2.3
2014-Aug-13 04:33N 35°13' E 139°45'3 3.2
2014-Aug-13 03:33N 35°11' E 139°48'4 4.1
2014-Aug-13 02:33N 35°13' E 139°44'4 4.3
2014-Aug-13 01:33N 35°11' E 139°48'5 4.6
2014-Aug-13 00:33N 35°13' E 139°43'3 2.7
2014-Aug-12 23:33N 35°12' E 139°46'2 1.7
2014-Aug-12 22:33N 35°13' E 139°44'3 2.7
2014-Aug-12 21:34N 35°11' E 139°47'1 0.1
2014-Aug-12 10:33N 35°12' E 139°46'2 2.1
2014-Aug-12 09:33N 35°11' E 139°48'4 4.4
2014-Aug-12 08:33N 35°13' E 139°43'5 5.4
2014-Aug-12 07:33N 35°10' E 139°49'5 5.3
2014-Aug-12 06:33N 35°13' E 139°44'3 3.3
2014-Aug-12 05:33N 35°11' E 139°47'2 2.5
2014-Aug-12 04:33N 35°13' E 139°44'3 3.5
2014-Aug-12 03:33N 35°11' E 139°48'5 4.6
2014-Aug-12 02:33N 35°13' E 139°43'5 4.6
2014-Aug-12 01:33N 35°11' E 139°48'4 4.3
2014-Aug-12 00:33N 35°13' E 139°44'  

Dump ship's entire track history